Terminal Aerodrome Forecast
Issued by NWS Mt. Holly, NJ

Current Version | Previous Version | Text Only | Print | Product List | Glossary On
Versions: 1 2 3 4 5 6 7 8 9 10 11 12 13 14 15 16 17
000
FTUS41 KPHI 281733
TAFTTN
TAF
KTTN 281733Z 2818/2918 27004KT P6SM SCT045
     FM290100 VRB03KT P6SM SCT250
     FM290800 VRB03KT 4SM BR SCT010
     FM291300 22004KT P6SM SCT045=

USA.gov is the U.S. government's official web portal to all federal, state and local government web resources and services.